Flight Track Log - Related Links

Times and Time Zones

All times are in EDT time to prevent confusion due to time zone crossing. See the TAM3542 flight status page for this flight to view local times or setup timezone preferences in your user account.

Time Position Orientation Groundspeed Altitude Reporting Facility
EDT Latitude Longitude Course Direction KTS MPH feet Rate Location/Type
Mon 08:27:39 PM -15.8670 -47.9210 101° East 21 24  Level FlightAware ADS-B
Mon 08:28:33 PM -15.8670 -47.9190 90° East 20 23 530 Level FlightAware ADS-B
Mon 08:29:01 PM -15.8670 -47.9160 90° East 33 38 596 Level FlightAware ADS-B
Mon 08:29:13 PM -15.8680 -47.9160 180° South 34 39 637 Level FlightAware ADS-B
Mon 08:29:40 PM -15.8710 -47.9160 180° South 34 39 656 Level FlightAware ADS-B
Mon 08:30:27 PM -15.8750 -47.9150 166° South 25 29 705 Level FlightAware ADS-B
Mon 08:31:32 PM -15.8780 -47.9210 243° Southwest 27 31 809 Level FlightAware ADS-B
Mon 08:31:59 PM -15.8780 -47.9240 270° West 27 31 1,016 Level FlightAware ADS-B
Mon 08:32:53 PM -15.8780 -47.9310 270° West 29 33 1,137 Level FlightAware ADS-B
Mon 08:34:33 PM -15.8810 -47.9390 249° West 18 21 1,491 Level FlightAware ADS-B
Mon 08:35:46 PM -15.8780 -47.8930 86° East 177 204 4,300 3,029 Climbing FlightAware ADS-B
Mon 08:36:16 PM -15.8770 -47.8680 88° East 177 204 5,200 1,800 Climbing FlightAware ADS-B
Mon 08:36:26 PM -15.8820 -47.8600 123° Southeast 180 207 5,500 1,350 Climbing FlightAware ADS-B
Mon 08:36:56 PM -15.9000 -47.8410 135° Southeast 193 222 6,100 1,050 Climbing FlightAware ADS-B
Mon 08:37:06 PM -15.9020 -47.8320 103° East 206 237 6,200 800 Climbing FlightAware ADS-B
Mon 08:37:41 PM -15.8780 -47.8060 46° Northeast 252 290 6,700 1,000 Climbing FlightAware ADS-B
Mon 08:38:06 PM -15.8470 -47.8030 North 283 326 7,200 1,731 Climbing FlightAware ADS-B
Mon 08:38:33 PM -15.8130 -47.8010 North 293 337 8,200 2,400 Climbing FlightAware ADS-B
Mon 08:38:56 PM -15.7800 -47.7970 North 299 344 9,200 2,372 Climbing FlightAware ADS-B
Mon 08:39:16 PM -15.7520 -47.7930 North 298 343 9,900 1,733 Climbing FlightAware ADS-B
Mon 08:39:41 PM -15.7190 -47.8010 347° North 311 358 10,500 1,350 Climbing FlightAware ADS-B
Mon 08:39:56 PM -15.7020 -47.8190 314° West 331 381 10,800 1,862 Climbing FlightAware ADS-B
Mon 08:40:39 PM -15.6580 -47.8740 310° West 347 399 12,300 2,163 Climbing FlightAware ADS-B
Mon 08:41:22 PM -15.6130 -47.9290 310° West 353 406 13,900 2,138 Climbing FlightAware ADS-B
Mon 08:42:06 PM -15.5670 -47.9850 310° West 355 409 15,400 1,906 Climbing FlightAware ADS-B
Mon 08:42:47 PM -15.5210 -48.0390 311° West 364 419 16,600 1,835 Climbing FlightAware ADS-B
Mon 08:43:31 PM -15.4720 -48.0990 310° West 372 428 18,000 1,412 Climbing FlightAware ADS-B
Mon 08:44:12 PM -15.4140 -48.1410 325° Northwest 393 452 18,600 1,275 Climbing FlightAware ADS-B
Mon 08:44:51 PM -15.3510 -48.1790 330° Northwest 398 458 19,700 1,714 Climbing FlightAware ADS-B
Mon 08:45:36 PM -15.2780 -48.2210 331° Northwest 400 460 21,000 1,553 Climbing FlightAware ADS-B
Mon 08:46:16 PM -15.2120 -48.2600 330° Northwest 407 468 21,900 1,425 Climbing FlightAware ADS-B
Mon 08:46:56 PM -15.1470 -48.2990 330° Northwest 409 471 22,900 1,271 Climbing FlightAware ADS-B
Mon 08:47:41 PM -15.0720 -48.3430 330° Northwest 421 484 23,700 1,333 Climbing FlightAware ADS-B
Mon 08:48:26 PM -14.9960 -48.3880 330° Northwest 416 479 24,900 1,694 Climbing FlightAware ADS-B
Mon 08:49:06 PM -14.9290 -48.4270 331° Northwest 408 470 26,100 1,660 Climbing FlightAware ADS-B
Mon 08:50:00 PM -14.8590 -48.4680 330° Northwest 396 456 27,500 1,546 Climbing FlightAware ADS-B
Mon 08:50:43 PM -14.7730 -48.5190 330° Northwest 398 458 28,600 940 Climbing FlightAware ADS-B
Mon 08:51:23 PM -14.7090 -48.5560 331° Northwest 413 475 28,800 796 Climbing FlightAware ADS-B
Mon 08:53:01 PM -14.5420 -48.6550 330° Northwest 30,000 870 Climbing FlightAware ADS-B
Mon 08:53:41 PM -14.4720 -48.6950 331° Northwest 30,600 947 Climbing FlightAware ADS-B
Mon 08:55:52 PM -14.2530 -48.8240 330° Northwest 426 490 32,700 1,029 Climbing FlightAware ADS-B
Mon 08:56:36 PM -14.1690 -48.8730 331° Northwest 425 489 33,600 923 Climbing FlightAware ADS-B
Mon 08:57:23 PM -14.1020 -48.9120 331° Northwest 419 482 34,100 316 Climbing FlightAware ADS-B
Mon 08:58:11 PM -14.0340 -48.9530 330° Northwest 419 482 34,100  Level FlightAware ADS-B
Mon 08:58:47 PM -13.9820 -48.9840 330° Northwest 419 482 34,100  Level FlightAware ADS-B
Mon 08:59:36 PM -13.9120 -49.0250 330° Northwest 419 482 34,100  Level FlightAware ADS-B
Mon 09:00:13 PM -13.8600 -49.0570 329° Northwest 419 482 34,100  Level FlightAware ADS-B
Mon 09:01:01 PM -13.7910 -49.0970 331° Northwest 419 482 34,100  Level FlightAware ADS-B
Mon 09:01:37 PM -13.7400 -49.1280 329° Northwest 419 482 34,100  Level FlightAware ADS-B
Mon 09:02:40 PM -13.6500 -49.1810 330° Northwest 419 482 34,100  Level FlightAware ADS-B
Mon 09:03:17 PM -13.5970 -49.2130 330° Northwest 419 482 34,100  Level FlightAware ADS-B
Mon 09:04:05 PM -13.5290 -49.2530 330° Northwest 419 482 34,100  Level FlightAware ADS-B
Mon 09:04:40 PM -13.4790 -49.2830 330° Northwest 419 482 34,100  Level FlightAware ADS-B
Mon 09:05:21 PM -13.4200 -49.3180 330° Northwest 419 482 34,100  Level FlightAware ADS-B
Mon 09:06:11 PM -13.3490 -49.3600 330° Northwest 419 482 34,100  Level FlightAware ADS-B
Mon 09:06:49 PM -13.2950 -49.3920 330° Northwest 419 482 34,100 1,520 Level FlightAware ADS-B
Mon 09:07:26 PM -13.1360 -49.5710 312° West 410 472 36,000 1,357 Climbing FlightAware ADS-B
Mon 09:08:13 PM -13.0740 -49.6340 315° West 408 470 36,000  Level FlightAware ADS-B
Mon 09:08:55 PM -13.0150 -49.6940 315° West 408 470 36,000  Level FlightAware ADS-B
Mon 09:10:00 PM -12.9720 -49.7370 316° Northwest 408 470 36,000  Level FlightAware ADS-B
Mon 09:10:49 PM -12.8610 -49.8490 315° West 411 473 36,000  Level FlightAware ADS-B
Mon 09:11:28 PM -12.8150 -49.8960 315° West 411 473 36,000  Level FlightAware ADS-B
Mon 09:12:09 PM -12.7530 -49.9580 316° Northwest 413 475 36,000  Level FlightAware ADS-B
Mon 09:12:52 PM -12.7010 -50.0110 315° West 413 475 36,000  Level FlightAware ADS-B
Mon 09:13:30 PM -12.6570 -50.0560 315° West 413 475 36,000  Level FlightAware ADS-B
Mon 09:14:19 PM -12.6010 -50.1130 315° West 413 475 36,000  Level FlightAware ADS-B
Mon 09:14:55 PM -12.5590 -50.1560 315° West 413 475 36,000  Level FlightAware ADS-B
Mon 09:15:43 PM -12.5040 -50.2120 315° West 413 475 36,000  Level FlightAware ADS-B
Mon 09:16:19 PM -12.4110 -50.3020 317° Northwest 410 472 36,000  Level FlightAware ADS-B
Mon 09:17:19 PM -12.3350 -50.3790 315° West 411 473 36,000  Level FlightAware ADS-B
Mon 09:17:55 PM -12.2940 -50.4210 315° West 411 473 36,000  Level FlightAware ADS-B
Mon 09:18:43 PM -12.2390 -50.4770 315° West 411 473 36,000  Level FlightAware ADS-B
Mon 09:19:19 PM -12.1980 -50.5190 315° West 411 473 36,000  Level FlightAware ADS-B
Mon 09:20:08 PM -12.1420 -50.5760 315° West 411 473 36,000  Level FlightAware ADS-B
Mon 09:20:44 PM -12.1010 -50.6180 315° West 411 473 36,000  Level FlightAware ADS-B
Mon 09:21:34 PM -12.0440 -50.6770 315° West 411 473 36,000  Level FlightAware ADS-B
Mon 09:22:27 PM -11.9080 -50.8060 317° Northwest 415 478 36,000  Level FlightAware ADS-B
Mon 09:23:23 PM -11.8360 -50.8770 316° Northwest 417 480 36,000  Level FlightAware ADS-B
Mon 09:24:16 PM -11.7660 -50.9480 315° West 417 480 36,000  Level FlightAware ADS-B
Mon 09:25:04 PM -11.7110 -51.0050 315° West 417 480 36,000  Level FlightAware ADS-B
Mon 09:27:00 PM -11.5656 -51.1621 313° West  Level Estimated
Mon 09:28:00 PM -11.4903 -51.2433 313° West  Level Estimated
Mon 09:29:00 PM -11.4150 -51.3245 313° West  Level Estimated
Mon 09:30:00 PM -11.3398 -51.4056 313° West  Level Estimated
Mon 09:30:22 PM -11.2590 -51.4500 313° West 415 478 36,000  Level FlightAware ADS-B
Mon 09:31:13 PM -11.1920 -51.5170 316° Northwest 415 478 36,000  Level FlightAware ADS-B
Mon 09:32:01 PM -11.1370 -51.5730 315° West 415 478 36,000  Level FlightAware ADS-B
Mon 09:32:38 PM -11.0940 -51.6170 315° West 415 478 36,000  Level FlightAware ADS-B
Mon 09:33:28 PM -11.0360 -51.6760 315° West 415 478 36,000  Level FlightAware ADS-B
Mon 09:34:04 PM -10.9950 -51.7180 315° West 415 478 36,000  Level FlightAware ADS-B
Mon 09:35:05 PM -10.9240 -51.7900 315° West 415 478 36,000  Level FlightAware ADS-B
Mon 09:35:40 PM -10.8840 -51.8310 315° West 415 478 36,000  Level FlightAware ADS-B
Mon 09:36:28 PM -10.8290 -51.8870 315° West 415 478 36,000  Level FlightAware ADS-B
Mon 09:37:04 PM -10.7870 -51.9290 316° Northwest 415 478 36,000  Level FlightAware ADS-B
Mon 09:37:52 PM -10.7320 -51.9860 314° West 415 478 36,000  Level FlightAware ADS-B
Mon 09:38:28 PM -10.6900 -52.0280 315° West 415 478 36,000  Level FlightAware ADS-B
Mon 09:39:16 PM -10.6350 -52.0840 315° West 415 478 36,000  Level FlightAware ADS-B
Mon 09:39:54 PM -10.5910 -52.1290 315° West 415 478 36,000  Level FlightAware ADS-B
Mon 09:40:36 PM -10.5420 -52.1780 315° West 415 478 36,000 -244 Level FlightAware ADS-B
Mon 09:43:00 PM -10.3723 -52.3610 313° West  Level Estimated
Mon 09:44:00 PM -10.3016 -52.4372 313° West  Level Estimated
Mon 09:45:00 PM -10.2308 -52.5134 313° West  Level Estimated
Mon 09:46:00 PM -10.1600 -52.5896 313° West  Level Estimated
Mon 09:47:00 PM -10.0892 -52.6657 313° West  Level Estimated
Mon 09:48:00 PM -10.0184 -52.7417 313° West  Level Estimated
Mon 09:49:00 PM -9.9476 -52.8178 313° West  Level Estimated
Mon 09:50:00 PM -9.8768 -52.8938 313° West  Level Estimated
Mon 09:51:00 PM -9.8059 -52.9697 313° West  Level Estimated
Mon 09:52:00 PM -9.7350 -53.0457 313° West  Level Estimated
Mon 09:53:00 PM -9.6641 -53.1216 313° West  Level Estimated
Mon 09:54:00 PM -9.5932 -53.1975 313° West  Level Estimated
Mon 09:55:00 PM -9.5223 -53.2733 313° West  Level Estimated
Mon 09:56:00 PM -9.4514 -53.3491 313° West  Level Estimated
Mon 09:57:00 PM -9.3804 -53.4249 313° West  Level Estimated
Mon 09:58:00 PM -9.3094 -53.5007 314° West  Level Estimated
Mon 09:59:00 PM -9.2384 -53.5764 314° West  Level Estimated
Mon 10:00:00 PM -9.1674 -53.6521 314° West  Level Estimated
Mon 10:01:00 PM -9.0964 -53.7277 314° West  Level Estimated
Mon 10:02:00 PM -9.0253 -53.8034 314° West  Level Estimated
Mon 10:03:00 PM -8.9543 -53.8790 314° West  Level Estimated
Mon 10:04:00 PM -8.8832 -53.9545 314° West  Level Estimated
Mon 10:05:00 PM -8.8121 -54.0301 314° West  Level Estimated
Mon 10:06:00 PM -8.7410 -54.1056 314° West  Level Estimated
Mon 10:07:00 PM -8.6699 -54.1811 314° West  Level Estimated
Mon 10:08:00 PM -8.5988 -54.2565 314° West  Level Estimated
Mon 10:09:00 PM -8.5276 -54.3319 314° West  Level Estimated
Mon 10:10:00 PM -8.4565 -54.4073 314° West  Level Estimated
Mon 10:11:00 PM -8.3853 -54.4827 314° West  Level Estimated
Mon 10:12:00 PM -8.3141 -54.5580 314° West  Level Estimated
Mon 10:13:00 PM -8.2429 -54.6334 314° West  Level Estimated
Mon 10:14:00 PM -8.1717 -54.7086 314° West  Level Estimated
Mon 10:15:00 PM -8.1005 -54.7839 314° West  Level Estimated
Mon 10:16:00 PM -8.0292 -54.8591 314° West  Level Estimated
Mon 10:17:00 PM -7.9580 -54.9343 314° West  Level Estimated
Mon 10:18:00 PM -7.8867 -55.0095 314° West  Level Estimated
Mon 10:19:00 PM -7.8154 -55.0847 314° West  Level Estimated
Mon 10:20:00 PM -7.7441 -55.1598 314° West  Level Estimated
Mon 10:21:00 PM -7.6728 -55.2349 314° West  Level Estimated
Mon 10:22:00 PM -7.6015 -55.3100 314° West  Level Estimated
Mon 10:23:00 PM -7.5302 -55.3851 314° West  Level Estimated
Mon 10:24:00 PM -7.4588 -55.4601 314° West  Level Estimated
Mon 10:25:00 PM -7.3875 -55.5351 314° West  Level Estimated
Mon 10:26:00 PM -7.3161 -55.6101 314° West  Level Estimated
Mon 10:27:00 PM -7.2447 -55.6850 314° West  Level Estimated
Mon 10:28:00 PM -7.1733 -55.7600 314° West  Level Estimated
Mon 10:29:00 PM -7.1019 -55.8349 314° West  Level Estimated
Mon 10:30:00 PM -7.0305 -55.9098 314° West  Level Estimated
Mon 10:31:00 PM -6.9590 -55.9846 314° West  Level Estimated
Mon 10:32:00 PM -6.8876 -56.0595 314° West  Level Estimated
Mon 10:33:00 PM -6.8161 -56.1343 314° West  Level Estimated
Mon 10:34:00 PM -6.7446 -56.2091 314° West  Level Estimated
Mon 10:35:00 PM -6.6732 -56.2839 314° West  Level Estimated
Mon 10:36:00 PM -6.6017 -56.3586 314° West  Level Estimated
Mon 10:37:00 PM -6.5302 -56.4333 314° West  Level Estimated
Mon 10:38:00 PM -6.4587 -56.5080 314° West  Level Estimated
Mon 10:39:00 PM -6.3871 -56.5827 314° West  Level Estimated
Mon 10:40:00 PM -6.3156 -56.6574 314° West  Level Estimated
Mon 10:41:00 PM -6.2440 -56.7321 314° West  Level Estimated
Mon 10:42:00 PM -6.1725 -56.8067 314° West  Level Estimated
Mon 10:43:00 PM -6.1009 -56.8813 314° West  Level Estimated
Mon 10:44:00 PM -6.0293 -56.9559 314° West  Level Estimated
Mon 10:45:00 PM -5.9577 -57.0304 314° West  Level Estimated
Mon 10:46:00 PM -5.8861 -57.1050 314° West  Level Estimated
Mon 10:47:00 PM -5.8145 -57.1795 314° West  Level Estimated
Mon 10:48:00 PM -5.7429 -57.2540 314° West  Level Estimated
Mon 10:49:00 PM -5.6713 -57.3285 314° West  Level Estimated
Mon 10:50:00 PM -5.5996 -57.4030 314° West  Level Estimated
Mon 10:51:00 PM -5.5280 -57.4775 314° West  Level Estimated
Mon 10:52:00 PM -5.4563 -57.5519 314° West  Level Estimated
Mon 10:53:00 PM -5.3847 -57.6263 314° West  Level Estimated
Mon 10:54:00 PM -5.3130 -57.7007 314° West  Level Estimated
Mon 10:55:00 PM -5.2413 -57.7751 314° West  Level Estimated
Mon 10:56:00 PM -5.1696 -57.8494 314° West  Level Estimated
Mon 10:57:00 PM -5.0979 -57.9238 314° West  Level Estimated
Mon 10:58:00 PM -5.0262 -57.9981 314° West  Level Estimated
Mon 10:59:00 PM -4.9545 -58.0724 314° West  Level Estimated
Mon 11:00:00 PM -4.8828 -58.1468 314° West  Level Estimated
Mon 11:01:00 PM -4.8110 -58.2210 314° West  Level Estimated
Mon 11:02:00 PM -4.7393 -58.2953 314° West  Level Estimated
Mon 11:03:00 PM -4.6675 -58.3695 314° West  Level Estimated
Mon 11:04:00 PM -4.5958 -58.4438 314° West  Level Estimated
Mon 11:05:00 PM -4.5240 -58.5180 314° West  Level Estimated
Mon 11:06:00 PM -4.4522 -58.5922 314° West  Level Estimated
Mon 11:07:00 PM -4.3804 -58.6664 314° West  Level Estimated
Mon 11:07:14 PM -3.5440 -59.5320 314° West 368 423 14,700  Level FlightAware ADS-B
Mon 11:07:59 PM -3.5030 -59.5810 310° West 368 423 14,500 -1,500 Descending FlightAware ADS-B
Mon 11:08:00 PM -4.3087 -58.7406 314° West  Level Estimated
Mon 11:08:38 PM -3.4640 -59.6460 301° West 351 404 12,600  Level FlightAware ADS-B
Mon 11:09:23 PM -3.4300 -59.7080 299° West 347 399 11,200 -1,465 Descending FlightAware ADS-B
Mon 11:10:04 PM -3.4000 -59.7650 298° West 328 377 10,500 -1,098 Descending FlightAware ADS-B
Mon 11:10:45 PM -3.3700 -59.8200 299° West 318 366 9,700 -876 Descending FlightAware ADS-B
Mon 11:11:33 PM -3.3490 -59.8590 298° West 319 367 9,200 -1,050 Descending FlightAware ADS-B
Mon 11:12:05 PM -3.3150 -59.9230 298° West 314 361 8,300 -1,600 Descending FlightAware ADS-B
Mon 11:12:33 PM -3.2950 -59.9590 299° West 310 357 7,600 -1,444 Descending FlightAware ADS-B
Mon 11:12:59 PM -3.2780 -59.9920 297° West 306 352 7,000 -1,500 Descending FlightAware ADS-B
Mon 11:13:25 PM -3.2610 -60.0230 299° West 303 349 6,300 -1,500 Descending FlightAware ADS-B
Mon 11:13:55 PM -3.2410 -60.0600 298° West 301 346 5,600 -1,017 Descending FlightAware ADS-B
Mon 11:14:24 PM -3.2230 -60.0950 297° West 287 330 5,300 -536 Descending FlightAware ADS-B
Mon 11:14:51 PM -3.2070 -60.1270 297° West 279 321 5,100 -453 Descending FlightAware ADS-B
Mon 11:15:17 PM -3.1860 -60.1510 311° West 270 311 4,900 -517 Descending FlightAware ADS-B
Mon 11:15:49 PM -3.1570 -60.1790 316° Northwest 261 300 4,600 -500 Descending FlightAware ADS-B
Mon 11:16:17 PM -3.1320 -60.2030 316° Northwest 257 296 4,400 -450 Descending FlightAware ADS-B
Mon 11:16:29 PM -3.1230 -60.2120 315° West 255 293 4,300 -714 Descending FlightAware ADS-B
Mon 11:16:59 PM -3.0940 -60.2310 327° Northwest 241 277 3,900 -1,000 Descending FlightAware ADS-B
Mon 11:17:23 PM -3.0700 -60.2240 16° North 227 261 3,400 -1,286 Descending FlightAware ADS-B
Mon 11:17:41 PM -3.0560 -60.2120 41° Northeast 222 255 3,000 -1,067 Descending FlightAware ADS-B
Mon 11:18:08 PM -3.0380 -60.1920 48° Northeast 212 244 2,600 -857 Descending FlightAware ADS-B
Mon 11:18:51 PM -3.0380 -60.1520 90° East 183 211 2,000 -873 Descending FlightAware ADS-B
Mon 11:19:03 PM -3.0380 -60.1430 90° East 173 199 1,800 -900 Descending FlightAware ADS-B
Mon 11:19:31 PM -3.0380 -60.1230 90° East 143 165 1,400 -750 Descending FlightAware ADS-B
Mon 11:19:59 PM -3.0380 -60.1050 90° East 134 154 1,100 -667 Descending FlightAware ADS-B
Mon 11:20:25 PM -3.0390 -60.0880 93° East 133 153 800 -600 Descending FlightAware ADS-B
Mon 11:20:39 PM -3.0390 -60.0810 90° East 133 153 700 -429 Descending FlightAware ADS-B
Mon 11:23:00 PM -3.0386 -60.0497 89° East  Level Estimated
Mon 11:23:27 PM -3.0360 -60.0420 89° East 29 33  Level FlightAware ADS-B
Mon 11:23:52 PM -3.0330 -60.0440 326° Northwest 15 17  Level FlightAware ADS-B
Mon 11:26:00 PM -3.0386 -60.0497 226° Southwest  Level Estimated
Mon 11:27:00 PM -3.0386 -60.0497 225° Southwest  Level Estimated

Login

Don't have an account? Register now (free) for customized features, flight alerts, and more!